• Join FlightAware (Why Join?)
  • Login
  • US Flag 
07:30AM EDT


 

Airport Tracker/Info


-or-


 

Live Flight TrackerFlight Track Log ✈ N816BG ✈ 20-Jun-2014 ✈ KBKL - KGRR

Flight Track Log - Related Links

Times and Time Zones

All times are in EDT time to prevent confusion due to time zone crossing. See the N816BG flight status page for this flight to view local times or setup timezone preferences in your user account.

Time Position Orientation Groundspeed Altitude Reporting Facility
EDT Latitude Longitude Course Direction KTS MPH feet Rate Location/Type
03:18PM 41.5278 -81.6658 253° West 171 197 1,300  Level Cleveland Center
03:20PM 41.5797 -81.7317 317° Northwest 268 308 5,400 2,100 Climbing Cleveland Center
03:21PM 41.5703 -81.8208 262° West 268 308 6,000 300 Climbing Cleveland Center
03:21PM 41.5619 -81.9117 263° West 270 311 6,000  Level Cleveland Center
03:22PM 41.5606 -81.9272 263° West 264 304 6,000 660 Level Cleveland Center
03:23PM 41.5481 -82.0247 260° West 265 305 6,900 1,860 Climbing Cleveland Center
03:24PM 41.3356 -82.3902 253° West  Level FlightAware Approximate
03:24PM 41.5206 -82.1194 249° West 272 313 9,900  Level Cleveland Center
03:25PM 41.4753 -82.2056 235° Southwest 279 321 13,100 2,820 Climbing Cleveland Center
03:26PM 41.4219 -82.3053 235° Southwest 280 322 15,800 2,220 Climbing Cleveland Center
03:27PM 41.3714 -82.3978 234° Southwest 301 346 17,800 1,860 Climbing Cleveland Center
03:28PM 41.3219 -82.4933 235° Southwest 308 354 19,700 1,680 Climbing Cleveland Center
03:29PM 41.2986 -82.6075 255° West 317 365 21,300 1,560 Climbing Cleveland Center
03:30PM 41.2822 -82.7253 260° West 320 368 23,000 1,260 Climbing Cleveland Center
03:31PM 41.2661 -82.8458 260° West 326 375 24,000 480 Climbing Cleveland Center
03:32PM 41.2800 -82.9992 277° West 365 420 24,000  Level Cleveland Center
03:33PM 41.3467 -83.1156 307° West 397 457 24,000  Level Cleveland Center
03:34PM 41.4278 -83.2161 317° Northwest 409 471 24,000  Level Cleveland Center
03:35PM 41.5125 -83.3219 317° Northwest 414 476 24,000  Level Cleveland Center
03:36PM 41.5986 -83.4294 317° Northwest 417 480 24,000  Level Cleveland Center
03:37PM 41.6819 -83.5381 316° Northwest 420 483 24,000  Level Cleveland Center
03:38PM 41.7686 -83.6844 308° West 419 482 24,000 -300 Level Cleveland Center
03:39PM 41.8392 -83.8061 308° West 415 478 23,400 -780 Descending Cleveland Center
03:40PM 41.9067 -83.9239 308° West 397 457 22,400 -1,020 Descending Cleveland Center
03:41PM 41.9717 -84.0372 308° West 383 441 21,400 -960 Descending Cleveland Center
03:42PM 42.0350 -84.1478 308° West 378 435 20,500 -1,140 Descending Cleveland Center
03:43PM 42.0978 -84.2592 307° West 376 433 19,100 -1,440 Descending Cleveland Center
03:44PM 42.1714 -84.3919 307° West 371 427 17,500 -1,500 Descending Cleveland Center
03:45PM 42.2328 -84.4989 308° West 365 420 16,000 -1,500 Descending Cleveland Center
03:47PM 42.2883 -84.5997 307° West 340 391 14,500 -1,500 Descending Cleveland Center
03:48PM 42.3461 -84.7036 307° West 329 379 13,000 -1,500 Descending Cleveland Center
03:49PM 42.4008 -84.8019 307° West 313 360 11,500 -1,500 Descending Cleveland Center
03:50PM 42.4469 -84.8850 307° West 282 325 10,000 -1,500 Descending Cleveland Center
03:50PM 42.4722 -84.9308 307° West 272 313 9,100 -1,140 Descending Chicago Center
03:51PM 42.4819 -84.9475 308° West 271 312 9,000 -120 Descending Chicago Center
03:52PM 42.5306 -85.0361 307° West 250 288 9,000  Level Chicago Center
03:53PM 42.5681 -85.1072 306° West 239 275 9,000 -300 Level Chicago Center
03:54PM 42.5781 -85.1983 279° West 258 297 8,400 -840 Descending Chicago Center
03:55PM 42.6161 -85.2839 301° West 261 300 7,300 -1,020 Descending Chicago Center
03:56PM 42.6528 -85.3675 301° West 261 300 6,300 -960 Descending Chicago Center
03:57PM 42.6894 -85.4553 300° West 262 302 5,400 -1,020 Descending Chicago Center
03:58PM 42.7331 -85.5558 301° West 262 302 4,300 -1,020 Descending Chicago Center
03:59PM 42.7683 -85.6406 300° West 261 300 3,300 -900 Descending Chicago Center
04:00PM 42.8033 -85.7258 299° West 261 300 2,500 -420 Descending Chicago Center
04:01PM 42.8603 -85.7300 357° North 264 304 2,500 -120 Level Chicago Center
04:02PM 42.8642 -85.6436 86° East 245 282 2,300 -480 Descending Chicago Center
04:03PM 42.8717 -85.5833 80° East 194 223 1,500 -720 Descending Chicago Center
04:04PM 42.8764 -85.5322 83° East 156 180 900 -600 Descending Chicago Center